createdAt,value
2022-08-05T00:02:07.895Z,70.60
2022-08-05T00:04:43.735Z,70.90
2022-08-05T00:07:21.782Z,70.20
2022-08-05T00:10:10.009Z,70.90
2022-08-05T00:12:56.093Z,70.90
2022-08-05T00:15:57.615Z,71.30
2022-08-05T00:18:22.791Z,71.80
2022-08-05T00:20:56.421Z,72.00
2022-08-05T00:23:44.548Z,70.30
2022-08-05T00:26:20.417Z,72.90
2022-08-05T00:28:52.817Z,73.60
2022-08-05T00:31:53.571Z,74.30
2022-08-05T00:34:55.494Z,75.30
2022-08-05T00:37:14.226Z,75.50
2022-08-05T00:39:58.625Z,75.80
2022-08-05T00:42:37.902Z,75.80
2022-08-05T00:45:13.428Z,74.60
2022-08-05T00:47:56.509Z,73.60
2022-08-05T00:50:29.766Z,73.10
2022-08-05T00:53:02.401Z,72.80
2022-08-05T00:55:42.915Z,72.60
2022-08-05T00:58:17.539Z,72.10
2022-08-05T01:00:51.044Z,72.70
2022-08-05T01:03:24.654Z,73.60
2022-08-05T01:06:06.431Z,73.50
2022-08-05T01:08:47.218Z,73.90
2022-08-05T01:11:36.872Z,74.50
2022-08-05T01:14:27.738Z,74.40
2022-08-05T01:17:05.816Z,74.40
2022-08-05T01:20:01.275Z,74.70
2022-08-05T01:23:15.196Z,74.70
2022-08-05T01:26:02.888Z,75.30
2022-08-05T01:29:05.052Z,75.60
2022-08-05T01:31:42.440Z,75.30
2022-08-05T01:34:26.781Z,76.20
2022-08-05T01:37:09.498Z,75.10
2022-08-05T01:39:54.988Z,75.30
2022-08-05T01:42:32.824Z,76.30
2022-08-05T01:45:08.288Z,76.80
2022-08-05T01:47:43.328Z,77.30
2022-08-05T01:50:28.785Z,77.80
2022-08-05T01:53:06.776Z,78.50
2022-08-05T01:55:42.233Z,78.40
2022-08-05T01:58:16.555Z,78.20
2022-08-05T02:00:53.964Z,79.10
2022-08-05T02:03:39.011Z,78.60
2022-08-05T02:06:37.523Z,78.40
2022-08-05T02:09:05.746Z,79.50
2022-08-05T02:11:56.991Z,80.10
2022-08-05T02:14:44.786Z,81.00
2022-08-05T02:18:33.259Z,81.70
2022-08-05T02:20:24.813Z,82.60
2022-08-05T02:23:08.704Z,83.10
2022-08-05T02:25:49.311Z,83.20
2022-08-05T02:28:32.975Z,83.30
2022-08-05T02:31:14.675Z,82.90
2022-08-05T02:33:58.365Z,82.60
2022-08-05T02:36:32.528Z,82.60
2022-08-05T02:39:08.095Z,82.70
2022-08-05T02:41:57.606Z,83.10
2022-08-05T02:44:35.000Z,83.90
2022-08-05T02:47:10.102Z,84.40
2022-08-05T02:49:44.444Z,84.50
2022-08-05T02:52:30.132Z,85.10
2022-08-05T02:55:10.711Z,85.90
2022-08-05T02:58:09.950Z,85.90
2022-08-05T03:00:38.576Z,85.40
2022-08-05T03:03:16.781Z,85.40
2022-08-05T03:06:54.061Z,85.50
2022-08-05T03:08:43.412Z,85.10
2022-08-05T03:11:54.330Z,84.80
2022-08-05T03:14:13.792Z,85.10
2022-08-05T03:16:46.858Z,84.90
2022-08-05T03:19:34.121Z,84.50
2022-08-05T03:22:16.243Z,84.50
2022-08-05T03:24:52.129Z,85.00
2022-08-05T03:27:29.773Z,85.10
2022-08-05T03:30:12.265Z,85.20
2022-08-05T03:32:44.134Z,85.00
2022-08-05T03:35:16.794Z,85.30
2022-08-05T03:37:50.671Z,85.90
2022-08-05T03:40:31.938Z,86.60
2022-08-05T03:43:58.893Z,86.60
2022-08-05T03:45:58.571Z,87.00
2022-08-05T03:48:35.693Z,87.50
2022-08-05T03:52:49.230Z,87.50
2022-08-05T03:55:52.674Z,88.20
2022-08-05T03:57:41.835Z,89.40
2022-08-05T04:00:16.654Z,89.60
2022-08-05T04:02:58.019Z,90.20
2022-08-05T04:05:34.430Z,90.40
2022-08-05T04:08:29.628Z,90.60
2022-08-05T04:11:05.161Z,90.60
2022-08-05T04:13:50.102Z,90.40
2022-08-05T04:16:25.186Z,90.60
2022-08-05T04:19:10.613Z,90.60
2022-08-05T04:22:08.614Z,90.80
2022-08-05T04:24:35.218Z,90.90
2022-08-05T04:27:07.129Z,90.70
2022-08-05T04:29:40.244Z,90.40
2022-08-05T04:32:12.073Z,90.20
2022-08-05T04:34:44.277Z,90.10
2022-08-05T04:37:16.707Z,88.60
2022-08-05T04:39:52.669Z,89.00
2022-08-05T04:42:25.474Z,89.90
2022-08-05T04:44:57.894Z,90.40
2022-08-05T04:47:38.551Z,90.90
2022-08-05T04:50:15.217Z,91.10
2022-08-05T04:53:08.627Z,91.30
2022-08-05T04:56:05.079Z,91.40
2022-08-05T04:58:33.877Z,91.60
2022-08-05T05:01:06.442Z,91.50
2022-08-05T05:03:42.065Z,91.30
2022-08-05T05:06:36.528Z,91.00
2022-08-05T05:09:07.054Z,90.80
2022-08-05T05:11:48.569Z,90.70
2022-08-05T05:14:32.219Z,90.60
2022-08-05T05:17:07.342Z,90.60
2022-08-05T05:19:44.235Z,90.80
2022-08-05T05:22:24.433Z,90.90
2022-08-05T05:25:00.273Z,91.00
2022-08-05T05:27:41.579Z,91.20
2022-08-05T05:30:30.991Z,91.40
2022-08-05T05:33:16.286Z,91.40
2022-08-05T05:35:49.290Z,91.40
2022-08-05T05:38:22.601Z,91.40
2022-08-05T05:40:58.972Z,91.50
2022-08-05T05:43:57.548Z,91.60
2022-08-05T05:46:23.308Z,91.50
2022-08-05T05:48:55.760Z,91.50
2022-08-05T05:51:27.917Z,91.50
2022-08-05T05:54:00.494Z,91.60
2022-08-05T05:56:34.533Z,91.70
2022-08-05T05:59:08.020Z,91.80
2022-08-05T06:01:41.404Z,91.70
2022-08-05T06:04:30.182Z,91.70
2022-08-05T06:07:01.944Z,91.70
2022-08-05T06:09:51.349Z,91.40
2022-08-05T06:12:27.197Z,91.30
2022-08-05T06:15:02.212Z,91.30
2022-08-05T06:17:53.558Z,91.20
2022-08-05T06:20:26.575Z,91.00
2022-08-05T06:23:00.669Z,91.00
2022-08-05T06:26:13.831Z,90.90
2022-08-05T06:28:29.046Z,90.40
2022-08-05T06:31:01.316Z,90.10
2022-08-05T06:34:07.634Z,89.70
2022-08-05T06:36:53.566Z,89.50
2022-08-05T06:39:28.169Z,89.60
2022-08-05T06:42:04.130Z,88.70
2022-08-05T06:44:36.660Z,88.70
2022-08-05T06:48:12.019Z,87.70
2022-08-05T06:50:04.975Z,88.40
2022-08-05T06:52:40.299Z,88.50
2022-08-05T06:55:12.585Z,87.90
2022-08-05T06:57:58.098Z,88.00
2022-08-05T07:00:39.558Z,87.70
2022-08-05T07:03:14.534Z,88.40
2022-08-05T07:05:48.696Z,88.70
2022-08-05T07:08:22.855Z,88.50
2022-08-05T07:10:57.300Z,89.20
2022-08-05T07:13:58.227Z,88.40
2022-08-05T07:18:01.906Z,88.20
2022-08-05T07:22:34.660Z,87.20
2022-08-05T07:25:23.514Z,87.50
2022-08-05T07:28:05.822Z,86.90
2022-08-05T07:30:40.427Z,86.90
2022-08-05T07:33:16.879Z,86.70
2022-08-05T07:36:03.940Z,85.80
2022-08-05T07:38:43.340Z,83.60
2022-08-05T07:42:07.173Z,80.80
2022-08-05T07:44:18.718Z,78.90
2022-08-05T07:46:51.419Z,79.10
2022-08-05T07:49:23.744Z,80.50
2022-08-05T07:51:55.565Z,80.70
2022-08-05T07:54:30.604Z,81.60
2022-08-05T07:57:17.567Z,79.40
2022-08-05T07:59:57.954Z,77.50
2022-08-05T08:02:31.009Z,75.40
2022-08-05T08:05:22.263Z,76.20
2022-08-05T08:08:00.077Z,71.80
2022-08-05T08:10:32.956Z,70.80
2022-08-05T08:13:05.115Z,69.40
2022-08-05T08:16:35.916Z,68.70
2022-08-05T08:18:30.320Z,68.20
2022-08-05T08:21:04.024Z,67.80
2022-08-05T08:24:02.399Z,68.00
2022-08-05T08:26:33.626Z,67.60
2022-08-05T08:29:21.746Z,67.20
2022-08-05T08:31:57.747Z,66.50
2022-08-05T08:34:29.899Z,65.20
2022-08-05T08:37:05.467Z,65.30
2022-08-05T08:39:38.179Z,65.90
2022-08-05T08:42:34.127Z,65.40
2022-08-05T08:45:23.609Z,65.90
2022-08-05T08:48:07.544Z,64.90
2022-08-05T08:51:22.493Z,65.00
2022-08-05T08:53:48.921Z,64.80
2022-08-05T08:56:22.188Z,63.10
2022-08-05T08:58:54.973Z,62.50
2022-08-05T09:01:31.568Z,62.10
2022-08-05T09:04:04.539Z,62.80
2022-08-05T09:06:42.780Z,64.60
2022-08-05T09:09:16.601Z,65.40
2022-08-05T09:11:52.612Z,64.40
2022-08-05T09:14:56.457Z,63.90
2022-08-05T09:17:42.845Z,64.20
2022-08-05T09:20:13.016Z,64.90
2022-08-05T09:23:19.108Z,64.40
2022-08-05T09:26:06.552Z,63.20
2022-08-05T09:28:41.128Z,63.40
2022-08-05T09:31:22.832Z,64.30
2022-08-05T09:34:11.914Z,62.90
2022-08-05T09:36:55.574Z,62.00
2022-08-05T09:39:44.980Z,63.30
2022-08-05T09:42:24.039Z,63.50
2022-08-05T09:46:04.670Z,62.50
2022-08-05T09:47:59.599Z,63.20
2022-08-05T09:50:44.182Z,61.50
2022-08-05T09:53:25.946Z,60.50
2022-08-05T09:56:13.351Z,61.40
2022-08-05T09:58:57.567Z,60.40
2022-08-05T10:01:34.072Z,60.10
2022-08-05T10:04:16.209Z,60.60
2022-08-05T10:06:59.639Z,61.50
2022-08-05T10:09:44.979Z,61.80
2022-08-05T10:12:18.561Z,60.80
2022-08-05T10:15:28.422Z,60.80
2022-08-05T10:18:16.951Z,60.70
2022-08-05T10:20:58.475Z,60.40
2022-08-05T10:23:55.517Z,60.50
2022-08-05T10:26:56.378Z,60.80
2022-08-05T10:30:07.014Z,60.00
2022-08-05T10:32:53.400Z,60.10
2022-08-05T10:35:24.166Z,59.60
2022-08-05T10:38:13.722Z,59.80
2022-08-05T10:40:57.850Z,61.10
2022-08-05T10:43:42.733Z,61.00
2022-08-05T10:46:17.630Z,61.10
2022-08-05T10:48:57.977Z,60.70
2022-08-05T10:52:00.488Z,60.00
2022-08-05T10:55:07.890Z,59.90
2022-08-05T10:57:44.704Z,59.70
2022-08-05T11:00:23.377Z,59.10
2022-08-05T11:03:25.226Z,59.70
2022-08-05T11:06:15.127Z,59.90
2022-08-05T11:09:08.047Z,60.20
2022-08-05T11:11:52.684Z,59.50
2022-08-05T11:14:57.736Z,59.50
2022-08-05T11:17:59.162Z,60.20
2022-08-05T11:20:43.666Z,59.80
2022-08-05T11:23:26.187Z,59.90
2022-08-05T11:26:12.234Z,59.40
2022-08-05T11:28:47.025Z,59.60
2022-08-05T11:31:58.458Z,59.60
2022-08-05T11:34:14.782Z,59.20
2022-08-05T11:36:52.943Z,59.60
2022-08-05T11:39:49.303Z,61.00
2022-08-05T11:42:28.880Z,60.60
2022-08-05T11:45:06.075Z,61.40
2022-08-05T11:47:56.143Z,62.10
2022-08-05T11:50:29.184Z,64.50
2022-08-05T11:53:06.328Z,63.10
2022-08-05T11:56:01.291Z,63.40
2022-08-05T11:58:37.254Z,62.90
2022-08-05T12:01:11.932Z,62.80
2022-08-05T12:03:55.740Z,62.80
2022-08-05T12:06:29.455Z,62.70
2022-08-05T12:09:06.506Z,63.10
2022-08-05T12:11:40.134Z,63.70
2022-08-05T12:14:14.884Z,64.30
2022-08-05T12:16:49.008Z,63.50
2022-08-05T12:20:17.158Z,63.70
2022-08-05T12:22:20.265Z,64.30
2022-08-05T12:24:52.954Z,64.60
2022-08-05T12:27:33.370Z,64.70
2022-08-05T12:30:10.587Z,64.50
2022-08-05T12:32:54.242Z,63.30
2022-08-05T12:35:39.560Z,63.80
2022-08-05T12:38:12.542Z,64.80
2022-08-05T12:40:48.318Z,63.70
2022-08-05T12:43:22.437Z,62.50
2022-08-05T12:45:57.033Z,62.60
2022-08-05T12:48:38.854Z,63.20
2022-08-05T12:52:10.735Z,62.60
2022-08-05T12:54:16.631Z,62.50
2022-08-05T12:56:51.723Z,62.20
2022-08-05T12:59:46.736Z,62.50
2022-08-05T13:02:27.284Z,62.00
2022-08-05T13:05:07.281Z,62.30
2022-08-05T13:07:59.904Z,61.50
2022-08-05T13:10:33.421Z,61.70
2022-08-05T13:13:08.820Z,61.40
2022-08-05T13:15:50.981Z,62.40
2022-08-05T13:18:24.103Z,62.00
2022-08-05T13:20:56.890Z,62.20
2022-08-05T13:23:28.763Z,62.40
2022-08-05T13:26:03.963Z,62.90
2022-08-05T13:28:43.949Z,62.60
2022-08-05T13:31:16.878Z,62.80
2022-08-05T13:34:24.912Z,64.00
2022-08-05T13:36:58.009Z,62.30
2022-08-05T13:40:13.378Z,62.10
2022-08-05T13:42:23.880Z,62.10
2022-08-05T13:44:57.984Z,62.10
2022-08-05T13:47:36.078Z,61.20
2022-08-05T13:50:23.483Z,61.00
2022-08-05T13:52:56.323Z,61.60
2022-08-05T13:55:41.101Z,61.80
2022-08-05T13:58:14.795Z,61.60
2022-08-05T14:01:04.566Z,61.50
2022-08-05T14:03:36.390Z,61.90
2022-08-05T14:06:26.373Z,61.70
2022-08-05T14:08:59.405Z,61.80
2022-08-05T14:11:32.356Z,62.90
2022-08-05T14:14:26.065Z,63.50
2022-08-05T14:17:06.176Z,63.30
2022-08-05T14:19:53.368Z,63.50
2022-08-05T14:22:30.199Z,63.10
2022-08-05T14:25:06.376Z,63.20
2022-08-05T14:27:52.025Z,63.00
2022-08-05T14:30:26.595Z,63.30
2022-08-05T14:33:00.584Z,63.60
2022-08-05T14:35:37.507Z,65.80
2022-08-05T14:38:32.341Z,65.90
2022-08-05T14:41:08.535Z,65.20
2022-08-05T14:44:00.167Z,65.40
2022-08-05T14:46:35.156Z,64.60
2022-08-05T14:49:08.575Z,64.60
2022-08-05T14:51:42.979Z,66.50
2022-08-05T14:54:28.065Z,67.20
2022-08-05T14:57:05.386Z,67.80
2022-08-05T14:59:42.108Z,68.30
2022-08-05T15:02:14.838Z,68.70
2022-08-05T15:04:49.948Z,68.80
2022-08-05T15:08:12.140Z,69.00
2022-08-05T15:10:15.091Z,71.50
2022-08-05T15:13:00.158Z,70.30
2022-08-05T15:15:55.553Z,70.90
2022-08-05T15:18:25.789Z,71.70
2022-08-05T15:20:58.575Z,71.80
2022-08-05T15:23:41.034Z,72.20
2022-08-05T15:26:13.032Z,75.00
2022-08-05T15:28:45.790Z,73.60
2022-08-05T15:31:23.795Z,74.00
2022-08-05T15:34:31.506Z,74.60
2022-08-05T15:37:02.370Z,74.80
2022-08-05T15:41:00.646Z,75.40
2022-08-05T15:42:53.952Z,75.60
2022-08-05T15:45:37.976Z,75.50
2022-08-05T15:48:14.042Z,75.40
2022-08-05T15:50:47.312Z,77.00
2022-08-05T15:53:20.145Z,76.40
2022-08-05T15:56:04.239Z,76.30
2022-08-05T15:58:37.272Z,76.40
2022-08-05T16:01:17.427Z,76.70
2022-08-05T16:03:51.133Z,77.40
2022-08-05T16:06:24.075Z,78.00
2022-08-05T16:08:55.903Z,78.30
2022-08-05T16:11:40.198Z,79.10
2022-08-05T16:14:17.518Z,79.60
2022-08-05T16:16:49.935Z,79.30
2022-08-05T16:20:02.758Z,79.70
2022-08-05T16:22:15.480Z,79.80
2022-08-05T16:24:51.244Z,80.30
2022-08-05T16:27:47.100Z,81.00
2022-08-05T16:30:26.270Z,81.00
2022-08-05T16:33:01.617Z,81.10
2022-08-05T16:35:42.485Z,81.70
2022-08-05T16:38:25.622Z,81.60
2022-08-05T16:41:29.714Z,81.50
2022-08-05T16:43:56.176Z,81.80
2022-08-05T16:46:29.183Z,82.10
2022-08-05T16:49:01.663Z,82.30
2022-08-05T16:51:42.635Z,82.10
2022-08-05T16:54:28.987Z,82.30
2022-08-05T16:57:04.280Z,82.30
2022-08-05T17:00:03.118Z,82.30
2022-08-05T17:02:38.077Z,83.90
2022-08-05T17:05:11.428Z,83.40
2022-08-05T17:07:44.544Z,83.80
2022-08-05T17:10:26.525Z,83.50
2022-08-05T17:13:03.545Z,83.40
2022-08-05T17:15:47.842Z,84.10
2022-08-05T17:18:22.314Z,84.10
2022-08-05T17:20:54.394Z,84.10
2022-08-05T17:24:05.035Z,83.70
2022-08-05T17:26:19.391Z,83.20
2022-08-05T17:28:53.080Z,83.10
2022-08-05T17:31:41.261Z,83.10
2022-08-05T17:34:18.225Z,83.10
2022-08-05T17:36:50.906Z,83.20
2022-08-05T17:39:24.394Z,83.30
2022-08-05T17:42:28.495Z,83.60
2022-08-05T17:44:58.448Z,84.00
2022-08-05T17:47:32.467Z,84.20
2022-08-05T17:50:10.925Z,84.30
2022-08-05T17:52:53.344Z,84.40
2022-08-05T17:55:37.791Z,84.40
2022-08-05T17:58:14.396Z,84.50
2022-08-05T18:00:50.743Z,84.60
2022-08-05T18:03:56.071Z,85.00
2022-08-05T18:06:17.977Z,85.40
2022-08-05T18:09:03.731Z,86.70
2022-08-05T18:11:36.317Z,85.50
2022-08-05T18:14:13.653Z,85.50
2022-08-05T18:16:52.941Z,85.40
2022-08-05T18:19:26.785Z,86.40
2022-08-05T18:22:08.961Z,85.40
2022-08-05T18:24:43.734Z,85.20
2022-08-05T18:27:18.477Z,85.40
2022-08-05T18:29:54.752Z,85.20
2022-08-05T18:32:27.687Z,85.40
2022-08-05T18:35:01.287Z,86.10
2022-08-05T18:37:34.381Z,85.70
2022-08-05T18:40:31.422Z,85.60
2022-08-05T18:43:08.953Z,85.80
2022-08-05T18:45:48.855Z,85.90
2022-08-05T18:48:30.636Z,86.20
2022-08-05T18:52:05.826Z,86.70
2022-08-05T18:54:16.625Z,86.90
2022-08-05T18:56:51.293Z,87.00
2022-08-05T18:59:43.382Z,87.10
2022-08-05T19:02:27.217Z,87.10
2022-08-05T19:06:05.563Z,87.20
2022-08-05T19:07:57.327Z,87.80
2022-08-05T19:10:30.583Z,88.30
2022-08-05T19:13:03.320Z,88.20
2022-08-05T19:15:59.713Z,87.30
2022-08-05T19:18:29.035Z,86.90
2022-08-05T19:21:01.527Z,86.60
2022-08-05T19:24:07.773Z,87.00
2022-08-05T19:26:30.161Z,87.50
2022-08-05T19:29:02.915Z,87.20
2022-08-05T19:31:44.603Z,87.80
2022-08-05T19:34:23.381Z,88.20
2022-08-05T19:36:56.138Z,88.50
2022-08-05T19:39:30.433Z,88.70
2022-08-05T19:42:07.671Z,88.60
2022-08-05T19:44:45.322Z,88.30
2022-08-05T19:47:19.791Z,88.50
2022-08-05T19:49:52.643Z,88.90
2022-08-05T19:52:31.604Z,88.50
2022-08-05T19:55:07.139Z,89.70
2022-08-05T19:58:19.425Z,88.30
2022-08-05T20:00:51.516Z,88.90
2022-08-05T20:03:24.197Z,88.20
2022-08-05T20:05:58.934Z,87.70
2022-08-05T20:08:48.873Z,87.30
2022-08-05T20:11:24.119Z,87.30
2022-08-05T20:14:11.974Z,87.30
2022-08-05T20:16:46.579Z,87.50
2022-08-05T20:19:21.045Z,87.60
2022-08-05T20:21:55.674Z,87.70
2022-08-05T20:24:29.369Z,88.00
2022-08-05T20:27:02.141Z,88.30
2022-08-05T20:29:34.423Z,89.30
2022-08-05T20:32:07.613Z,89.30
2022-08-05T20:34:42.035Z,89.30
2022-08-05T20:37:18.158Z,89.30
2022-08-05T20:40:07.904Z,89.50
2022-08-05T20:42:40.702Z,90.00
2022-08-05T20:45:15.941Z,90.20
2022-08-05T20:47:52.963Z,90.70
2022-08-05T20:50:26.257Z,91.40
2022-08-05T20:52:58.959Z,91.90
2022-08-05T20:56:07.739Z,92.10
2022-08-05T20:58:24.262Z,92.60
2022-08-05T21:01:01.732Z,92.50
2022-08-05T21:03:35.157Z,91.70
2022-08-05T21:06:23.141Z,92.60
2022-08-05T21:09:00.809Z,92.70
2022-08-05T21:12:07.464Z,93.10
2022-08-05T21:14:26.558Z,93.70
2022-08-05T21:16:59.256Z,93.90
2022-08-05T21:19:47.122Z,94.60
2022-08-05T21:22:23.937Z,94.20
2022-08-05T21:24:56.831Z,94.10
2022-08-05T21:27:28.984Z,94.00
2022-08-05T21:30:11.932Z,93.90
2022-08-05T21:32:49.510Z,93.60
2022-08-05T21:35:30.341Z,93.90
2022-08-05T21:38:16.610Z,93.80
2022-08-05T21:40:49.295Z,93.60
2022-08-05T21:43:24.825Z,93.50
2022-08-05T21:46:00.441Z,93.50
2022-08-05T21:48:32.998Z,93.40
2022-08-05T21:52:15.665Z,93.20
2022-08-05T21:54:03.975Z,92.10
2022-08-05T21:56:36.303Z,91.10
2022-08-05T21:59:23.845Z,90.30
2022-08-05T22:01:57.358Z,90.00
2022-08-05T22:04:29.930Z,89.50
2022-08-05T22:07:02.116Z,88.70
2022-08-05T22:09:45.814Z,88.50
2022-08-05T22:12:18.771Z,87.70
2022-08-05T22:14:59.279Z,87.80
2022-08-05T22:17:31.748Z,88.30
2022-08-05T22:20:14.877Z,88.50
2022-08-05T22:23:16.854Z,87.40
2022-08-05T22:26:10.150Z,88.30
2022-08-05T22:28:43.273Z,88.10
2022-08-05T22:31:15.837Z,88.40
2022-08-05T22:33:57.489Z,88.90
2022-08-05T22:36:33.848Z,88.40
2022-08-05T22:39:10.250Z,90.10
2022-08-05T22:42:09.517Z,89.40
2022-08-05T22:44:36.548Z,90.00
2022-08-05T22:47:09.112Z,90.10
2022-08-05T22:50:21.509Z,90.40
2022-08-05T22:52:39.502Z,90.60
2022-08-05T22:55:18.886Z,90.80
2022-08-05T22:57:54.022Z,91.10
2022-08-05T23:00:26.862Z,90.80
2022-08-05T23:03:00.038Z,90.90
2022-08-05T23:05:36.338Z,91.50
2022-08-05T23:08:12.771Z,91.30
2022-08-05T23:10:46.085Z,92.00
2022-08-05T23:13:18.363Z,92.00
2022-08-05T23:15:52.248Z,92.20
2022-08-05T23:18:24.062Z,92.50
2022-08-05T23:20:56.697Z,92.50
2022-08-05T23:23:30.154Z,92.70
2022-08-05T23:26:06.739Z,92.60
2022-08-05T23:28:38.810Z,92.70
2022-08-05T23:31:17.930Z,93.20
2022-08-05T23:34:03.932Z,93.50
2022-08-05T23:36:41.548Z,93.40
2022-08-05T23:39:31.996Z,93.70
2022-08-05T23:42:14.406Z,93.90
2022-08-05T23:45:02.490Z,94.30
2022-08-05T23:47:34.932Z,94.60
2022-08-05T23:50:20.944Z,94.60
2022-08-05T23:52:54.529Z,94.70
2022-08-05T23:55:30.957Z,94.70
2022-08-05T23:58:03.920Z,94.90
